createdAt,value
2022-08-21T00:01:51.571Z,100702.13
2022-08-21T00:04:22.160Z,100702.97
2022-08-21T00:06:52.424Z,100699.03
2022-08-21T00:09:21.081Z,100700.34
2022-08-21T00:11:48.860Z,100698.31
2022-08-21T00:14:16.080Z,100703.06
2022-08-21T00:16:42.925Z,100708.34
2022-08-21T00:19:10.081Z,100704.44
2022-08-21T00:21:37.023Z,100698.88
2022-08-21T00:24:04.674Z,100708.88
2022-08-21T00:26:31.438Z,100714.03
2022-08-21T00:28:58.977Z,100709.94
2022-08-21T00:31:26.126Z,100710.69
2022-08-21T00:33:52.943Z,100715.91
2022-08-21T00:36:27.573Z,100711.50
2022-08-21T00:38:54.363Z,100712.25
2022-08-21T00:41:37.653Z,100705.00
2022-08-21T00:44:11.740Z,100709.34
2022-08-21T00:46:41.659Z,100706.94
2022-08-21T00:49:13.255Z,100706.19
2022-08-21T00:52:00.330Z,100715.34
2022-08-21T00:54:30.934Z,100701.34
2022-08-21T00:57:01.511Z,100709.25
2022-08-21T00:59:32.886Z,100705.66
2022-08-21T01:01:59.816Z,100696.44
2022-08-21T01:04:26.896Z,100707.09
2022-08-21T01:06:56.091Z,100710.25
2022-08-21T01:09:22.884Z,100703.88
2022-08-21T01:11:50.479Z,100699.00
2022-08-21T01:14:19.479Z,100709.28
2022-08-21T01:16:50.986Z,100711.63
2022-08-21T01:19:21.002Z,100711.94
2022-08-21T01:21:49.152Z,100713.84
2022-08-21T01:24:16.351Z,100714.16
2022-08-21T01:26:43.868Z,100714.47
2022-08-21T01:29:41.423Z,100713.91
2022-08-21T01:32:12.534Z,100716.13
2022-08-21T01:34:43.315Z,100721.25
2022-08-21T01:37:11.800Z,100718.31
2022-08-21T01:39:38.840Z,100727.44
2022-08-21T01:42:06.489Z,100727.44
2022-08-21T01:44:35.478Z,100726.97
2022-08-21T01:47:05.820Z,100729.63
2022-08-21T01:49:32.772Z,100730.44
2022-08-21T01:51:59.680Z,100729.56
2022-08-21T01:54:27.249Z,100730.66
2022-08-21T01:56:55.935Z,100731.81
2022-08-21T01:59:25.074Z,100720.69
2022-08-21T02:01:55.416Z,100722.25
2022-08-21T02:04:22.902Z,100717.34
2022-08-21T02:06:51.025Z,100721.59
2022-08-21T02:09:18.863Z,100722.78
2022-08-21T02:11:47.224Z,100727.06
2022-08-21T02:14:32.304Z,100718.69
2022-08-21T02:17:05.245Z,100719.41
2022-08-21T02:19:37.832Z,100716.19
2022-08-21T02:22:08.756Z,100718.50
2022-08-21T02:24:35.537Z,100720.50
2022-08-21T02:27:05.535Z,100724.03
2022-08-21T02:29:32.378Z,100727.91
2022-08-21T02:31:59.860Z,100720.59
2022-08-21T02:34:29.267Z,100721.38
2022-08-21T02:36:58.743Z,100720.50
2022-08-21T02:39:26.945Z,100722.31
2022-08-21T02:41:55.337Z,100727.44
2022-08-21T02:44:22.180Z,100723.34
2022-08-21T02:47:02.810Z,100717.69
2022-08-21T02:49:29.575Z,100712.94
2022-08-21T02:51:56.374Z,100716.81
2022-08-21T02:54:23.146Z,100709.63
2022-08-21T02:56:49.892Z,100711.97
2022-08-21T02:59:16.708Z,100711.97
2022-08-21T03:01:43.617Z,100710.44
2022-08-21T03:04:10.546Z,100700.47
2022-08-21T03:06:37.547Z,100703.81
2022-08-21T03:09:04.616Z,100710.75
2022-08-21T03:11:31.364Z,100700.25
2022-08-21T03:13:58.229Z,100700.09
2022-08-21T03:16:24.997Z,100698.47
2022-08-21T03:18:51.760Z,100698.56
2022-08-21T03:21:20.041Z,100699.81
2022-08-21T03:23:47.657Z,100701.69
2022-08-21T03:26:15.040Z,100704.13
2022-08-21T03:28:43.954Z,100707.53
2022-08-21T03:31:10.730Z,100715.78
2022-08-21T03:33:37.499Z,100713.72
2022-08-21T03:36:07.463Z,100713.63
2022-08-21T03:38:35.651Z,100710.75
2022-08-21T03:41:03.342Z,100705.94
2022-08-21T03:43:31.241Z,100705.94
2022-08-21T03:46:01.257Z,100702.81
2022-08-21T03:48:28.061Z,100705.94
2022-08-21T03:50:56.202Z,100705.41
2022-08-21T03:53:23.167Z,100702.63
2022-08-21T03:55:53.617Z,100711.69
2022-08-21T03:58:24.316Z,100723.06
2022-08-21T04:00:53.333Z,100710.72
2022-08-21T04:03:20.921Z,100707.81
2022-08-21T04:05:48.100Z,100707.28
2022-08-21T04:08:18.336Z,100712.50
2022-08-21T04:10:47.753Z,100699.34
2022-08-21T04:13:15.736Z,100705.31
2022-08-21T04:15:43.634Z,100711.25
2022-08-21T04:18:11.000Z,100717.25
2022-08-21T04:20:38.108Z,100720.34
2022-08-21T04:23:05.135Z,100719.47
2022-08-21T04:25:32.910Z,100717.78
2022-08-21T04:27:59.691Z,100723.66
2022-08-21T04:30:28.254Z,100726.72
2022-08-21T04:32:58.491Z,100722.69
2022-08-21T04:35:27.814Z,100723.50
2022-08-21T04:37:54.750Z,100732.16
2022-08-21T04:40:22.959Z,100739.69
2022-08-21T04:42:57.062Z,100743.63
2022-08-21T04:45:36.501Z,100749.88
2022-08-21T04:48:09.675Z,100756.25
2022-08-21T04:51:00.846Z,100756.59
2022-08-21T04:53:42.747Z,100756.59
2022-08-21T04:56:14.116Z,100754.53
2022-08-21T04:58:43.485Z,100764.72
2022-08-21T05:01:17.075Z,100759.53
2022-08-21T05:03:44.620Z,100752.38
2022-08-21T05:06:14.326Z,100762.09
2022-08-21T05:08:44.597Z,100763.63
2022-08-21T05:11:12.666Z,100765.94
2022-08-21T05:13:41.281Z,100767.91
2022-08-21T05:16:08.435Z,100763.97
2022-08-21T05:18:35.414Z,100770.09
2022-08-21T05:21:02.151Z,100767.75
2022-08-21T05:23:28.932Z,100768.56
2022-08-21T05:25:56.675Z,100766.13
2022-08-21T05:28:24.664Z,100766.94
2022-08-21T05:30:53.966Z,100773.31
2022-08-21T05:33:20.830Z,100778.84
2022-08-21T05:35:56.702Z,100780.13
2022-08-21T05:38:25.388Z,100777.44
2022-08-21T05:40:52.483Z,100776.28
2022-08-21T05:43:19.288Z,100781.38
2022-08-21T05:45:46.443Z,100781.03
2022-08-21T05:48:19.982Z,100779.16
2022-08-21T05:50:51.964Z,100775.31
2022-08-21T05:53:20.804Z,100775.31
2022-08-21T05:55:48.542Z,100774.53
2022-08-21T05:58:18.141Z,100778.44
2022-08-21T06:00:48.540Z,100778.56
2022-08-21T06:03:41.743Z,100777.13
2022-08-21T06:06:08.760Z,100786.81
2022-08-21T06:08:35.792Z,100790.25
2022-08-21T06:11:04.211Z,100789.59
2022-08-21T06:13:31.030Z,100783.78
2022-08-21T06:16:14.921Z,100781.81
2022-08-21T06:18:44.293Z,100792.22
2022-08-21T06:21:12.574Z,100785.84
2022-08-21T06:23:39.366Z,100787.38
2022-08-21T06:26:08.165Z,100797.06
2022-08-21T06:28:36.401Z,100794.47
2022-08-21T06:31:11.671Z,100805.41
2022-08-21T06:33:38.466Z,100801.53
2022-08-21T06:36:05.565Z,100808.00
2022-08-21T06:38:32.854Z,100810.50
2022-08-21T06:41:00.068Z,100815.38
2022-08-21T06:43:30.655Z,100816.25
2022-08-21T06:46:07.185Z,100823.44
2022-08-21T06:48:35.098Z,100824.75
2022-08-21T06:51:02.162Z,100826.81
2022-08-21T06:53:29.052Z,100834.81
2022-08-21T06:55:56.066Z,100842.66
2022-08-21T06:58:22.863Z,100843.47
2022-08-21T07:00:52.512Z,100838.75
2022-08-21T07:03:24.439Z,100840.38
2022-08-21T07:05:51.808Z,100835.16
2022-08-21T07:08:18.691Z,100844.41
2022-08-21T07:10:46.188Z,100831.41
2022-08-21T07:13:13.043Z,100842.19
2022-08-21T07:15:40.318Z,100835.97
2022-08-21T07:18:07.265Z,100836.94
2022-08-21T07:20:35.228Z,100839.38
2022-08-21T07:23:08.257Z,100837.03
2022-08-21T07:25:35.058Z,100847.44
2022-08-21T07:28:03.442Z,100843.03
2022-08-21T07:30:30.265Z,100841.16
2022-08-21T07:32:57.859Z,100835.75
2022-08-21T07:35:25.566Z,100843.81
2022-08-21T07:37:52.448Z,100857.44
2022-08-21T07:40:19.940Z,100848.81
2022-08-21T07:42:52.537Z,100857.59
2022-08-21T07:45:22.268Z,100855.44
2022-08-21T07:47:52.964Z,100877.94
2022-08-21T07:50:22.204Z,100874.22
2022-08-21T07:52:49.462Z,100875.47
2022-08-21T07:55:22.093Z,100873.94
2022-08-21T07:57:49.585Z,100874.38
2022-08-21T08:00:20.654Z,100875.72
2022-08-21T08:02:51.123Z,100875.84
2022-08-21T08:05:20.414Z,100877.31
2022-08-21T08:07:47.412Z,100871.19
2022-08-21T08:10:15.097Z,100871.78
2022-08-21T08:12:43.493Z,100867.66
2022-08-21T08:15:14.216Z,100867.56
2022-08-21T08:17:41.062Z,100872.28
2022-08-21T08:20:09.959Z,100866.31
2022-08-21T08:22:38.689Z,100870.78
2022-08-21T08:25:09.414Z,100872.06
2022-08-21T08:27:36.795Z,100871.25
2022-08-21T08:30:05.077Z,100869.00
2022-08-21T08:32:31.882Z,100866.00
2022-08-21T08:34:58.642Z,100869.97
2022-08-21T08:37:29.488Z,100868.91
2022-08-21T08:40:02.184Z,100875.19
2022-08-21T08:42:36.840Z,100868.91
2022-08-21T08:45:13.767Z,100861.22
2022-08-21T08:47:59.818Z,100870.59
2022-08-21T08:51:22.388Z,100860.78
2022-08-21T08:57:52.596Z,100863.59
2022-08-21T09:00:50.917Z,100873.53
2022-08-21T09:03:18.240Z,100875.09
2022-08-21T09:06:38.752Z,100882.97
2022-08-21T09:13:18.604Z,100876.50
2022-08-21T09:27:14.798Z,100868.13
2022-08-21T09:29:52.152Z,100862.00
2022-08-21T09:32:37.803Z,100868.03
2022-08-21T09:35:12.647Z,100857.47
2022-08-21T09:38:29.367Z,100863.34
2022-08-21T09:41:05.910Z,100858.25
2022-08-21T09:48:33.166Z,100856.66
2022-08-21T09:51:24.001Z,100853.72
2022-08-21T10:02:25.885Z,100850.63
2022-08-21T10:09:13.665Z,100859.75
2022-08-21T10:12:05.115Z,100864.56
2022-08-21T10:15:15.949Z,100857.25
2022-08-21T10:22:09.372Z,100854.72
2022-08-21T10:25:07.936Z,100846.22
2022-08-21T10:28:04.779Z,100857.19
2022-08-21T10:34:27.555Z,100842.19
2022-08-21T10:37:41.539Z,100841.88
2022-08-21T10:40:14.155Z,100833.88
2022-08-21T10:46:49.068Z,100847.69
2022-08-21T10:53:57.951Z,100848.75
2022-08-21T10:56:29.764Z,100850.41
2022-08-21T11:03:11.907Z,100845.84
2022-08-21T11:05:51.175Z,100850.56
2022-08-21T11:16:05.077Z,100847.44
2022-08-21T11:18:34.849Z,100842.38
2022-08-21T11:21:16.914Z,100847.81
2022-08-21T11:24:05.627Z,100836.31
2022-08-21T11:26:51.322Z,100834.25
2022-08-21T11:29:35.966Z,100836.97
2022-08-21T11:32:16.492Z,100838.34
2022-08-21T11:39:14.249Z,100841.59
2022-08-21T11:41:53.333Z,100838.53
2022-08-21T11:44:22.905Z,100836.22
2022-08-21T11:47:28.543Z,100837.00
2022-08-21T11:50:34.186Z,100830.44
2022-08-21T11:53:34.709Z,100834.81
2022-08-21T11:56:46.596Z,100840.50
2022-08-21T11:59:22.011Z,100835.28
2022-08-21T12:01:51.925Z,100838.50
2022-08-21T12:08:34.395Z,100832.38
2022-08-21T12:15:07.710Z,100827.28
2022-08-21T12:17:40.899Z,100830.09
2022-08-21T12:24:16.495Z,100832.66
2022-08-21T12:26:56.037Z,100828.94
2022-08-21T12:29:32.722Z,100827.34
2022-08-21T12:32:20.251Z,100828.56
2022-08-21T12:34:56.030Z,100832.91
2022-08-21T12:37:42.356Z,100831.13
2022-08-21T12:40:18.232Z,100827.81
2022-08-21T12:42:58.695Z,100825.97
2022-08-21T12:45:34.526Z,100827.34
2022-08-21T12:48:10.489Z,100845.63
2022-08-21T12:51:18.656Z,100844.00
2022-08-21T12:58:25.586Z,100848.94
2022-08-21T13:04:43.113Z,100855.06
2022-08-21T13:07:13.203Z,100849.22
2022-08-21T13:21:15.679Z,100837.25
2022-08-21T13:23:42.483Z,100838.75
2022-08-21T13:27:03.487Z,100831.41
2022-08-21T13:33:13.990Z,100837.56
2022-08-21T13:35:59.292Z,100835.72
2022-08-21T13:38:30.944Z,100832.47
2022-08-21T13:44:32.351Z,100826.63
2022-08-21T13:50:57.524Z,100827.44
2022-08-21T13:57:05.583Z,100816.41
2022-08-21T14:03:46.310Z,100825.59
2022-08-21T14:11:14.447Z,100820.00
2022-08-21T14:14:30.739Z,100820.25
2022-08-21T14:17:33.457Z,100813.72
2022-08-21T14:20:32.716Z,100810.53
2022-08-21T14:27:32.430Z,100797.03
2022-08-21T14:30:27.995Z,100813.63
2022-08-21T14:33:28.471Z,100803.16
2022-08-21T14:36:16.251Z,100811.34
2022-08-21T14:39:03.578Z,100808.56
2022-08-21T14:49:34.609Z,100806.81
2022-08-21T14:52:01.642Z,100806.03
2022-08-21T14:54:31.760Z,100803.44
2022-08-21T14:57:01.838Z,100797.50
2022-08-21T14:59:28.762Z,100804.78
2022-08-21T15:01:57.248Z,100803.25
2022-08-21T15:04:24.343Z,100794.44
2022-08-21T15:06:51.657Z,100805.34
2022-08-21T15:09:18.983Z,100807.31
2022-08-21T15:11:45.818Z,100807.25
2022-08-21T15:17:53.185Z,100812.69
2022-08-21T15:20:47.963Z,100805.97
2022-08-21T15:23:35.947Z,100803.88
2022-08-21T15:26:53.718Z,100804.25
2022-08-21T15:40:52.674Z,100811.44
2022-08-21T15:51:10.320Z,100813.16
2022-08-21T15:53:39.646Z,100811.75
2022-08-21T16:03:51.426Z,100794.31
2022-08-21T16:06:18.395Z,100795.34
2022-08-21T16:09:06.503Z,100790.97
2022-08-21T16:11:34.336Z,100788.91
2022-08-21T16:14:01.192Z,100789.66
2022-08-21T16:16:29.787Z,100780.25
2022-08-21T16:18:58.675Z,100783.63
2022-08-21T16:25:07.020Z,100784.63
2022-08-21T16:27:36.371Z,100790.00
2022-08-21T16:30:07.093Z,100786.66
2022-08-21T16:32:35.487Z,100779.28
2022-08-21T16:35:03.972Z,100783.84
2022-08-21T16:37:30.783Z,100777.31
2022-08-21T16:39:57.646Z,100776.88
2022-08-21T16:46:24.888Z,100766.06
2022-08-21T16:49:11.903Z,100769.72
2022-08-21T16:51:58.977Z,100764.44
2022-08-21T16:54:46.060Z,100763.16
2022-08-21T16:57:33.345Z,100754.59
2022-08-21T17:00:20.738Z,100764.81
2022-08-21T17:03:14.876Z,100770.16
2022-08-21T17:06:02.382Z,100776.63
2022-08-21T17:08:52.468Z,100778.78
2022-08-21T17:11:36.843Z,100775.41
2022-08-21T17:14:42.604Z,100764.78
2022-08-21T17:21:10.031Z,100773.22
2022-08-21T17:27:31.848Z,100767.72
2022-08-21T17:29:58.689Z,100764.97
2022-08-21T17:36:36.506Z,100768.09
2022-08-21T17:43:20.032Z,100762.53
2022-08-21T17:45:47.221Z,100769.81
2022-08-21T17:49:01.575Z,100762.44
2022-08-21T17:51:28.566Z,100763.47
2022-08-21T17:57:49.016Z,100770.03
2022-08-21T18:04:17.544Z,100780.78
2022-08-21T18:06:52.423Z,100775.19
2022-08-21T18:09:20.862Z,100779.19
2022-08-21T18:11:47.673Z,100785.69
2022-08-21T18:17:55.215Z,100785.31
2022-08-21T18:35:34.549Z,100762.50
2022-08-21T18:38:01.302Z,100759.28
2022-08-21T18:40:28.248Z,100760.50
2022-08-21T18:42:56.106Z,100761.72
2022-08-21T18:45:24.428Z,100750.50
2022-08-21T18:47:53.201Z,100748.88
2022-08-21T18:50:25.006Z,100750.44
2022-08-21T18:59:30.858Z,100748.78
2022-08-21T19:02:17.966Z,100760.38
2022-08-21T19:05:06.456Z,100762.31
2022-08-21T19:11:35.465Z,100743.84
2022-08-21T19:14:22.807Z,100753.03
2022-08-21T19:22:18.071Z,100745.81
2022-08-21T19:25:06.884Z,100756.59
2022-08-21T19:27:54.123Z,100752.16
2022-08-21T19:30:51.200Z,100762.56
2022-08-21T19:33:44.317Z,100765.34
2022-08-21T19:36:32.711Z,100758.94
2022-08-21T19:39:20.062Z,100762.03
2022-08-21T19:46:22.712Z,100750.41
2022-08-21T19:53:34.855Z,100749.91
2022-08-21T19:56:24.874Z,100745.09
2022-08-21T19:58:52.422Z,100742.25
2022-08-21T20:01:21.987Z,100749.84
2022-08-21T20:08:20.581Z,100741.78
2022-08-21T20:10:50.014Z,100730.59
2022-08-21T20:13:39.516Z,100729.44
2022-08-21T20:20:01.157Z,100731.03
2022-08-21T20:27:01.000Z,100715.06
2022-08-21T20:29:48.157Z,100722.59
2022-08-21T20:32:37.154Z,100722.56
2022-08-21T20:35:26.236Z,100720.13
2022-08-21T20:44:33.153Z,100713.72
2022-08-21T20:51:18.206Z,100724.50
2022-08-21T20:54:34.065Z,100722.94
2022-08-21T20:57:29.523Z,100724.16
2022-08-21T21:00:20.835Z,100717.31
2022-08-21T21:03:30.380Z,100712.88
2022-08-21T21:06:21.403Z,100708.88
2022-08-21T21:09:14.816Z,100710.09
2022-08-21T21:12:06.486Z,100707.28
2022-08-21T21:19:29.052Z,100702.47
2022-08-21T21:22:49.306Z,100709.72
2022-08-21T21:25:57.456Z,100708.09
2022-08-21T21:28:48.478Z,100702.06
2022-08-21T21:31:35.701Z,100701.25
2022-08-21T21:34:24.760Z,100695.63
2022-08-21T21:41:44.934Z,100707.94
2022-08-21T21:45:13.623Z,100698.34
2022-08-21T21:52:35.122Z,100704.28
2022-08-21T21:55:34.121Z,100691.47
2022-08-21T21:58:36.240Z,100691.84
2022-08-21T22:01:47.699Z,100690.66
2022-08-21T22:04:37.836Z,100689.50
2022-08-21T22:07:46.260Z,100679.91
2022-08-21T22:10:30.551Z,100679.53
2022-08-21T22:13:40.206Z,100677.59
2022-08-21T22:16:27.377Z,100681.97
2022-08-21T22:19:26.472Z,100679.94
2022-08-21T22:22:21.935Z,100675.53
2022-08-21T22:24:53.305Z,100666.25
2022-08-21T22:27:34.598Z,100673.00
2022-08-21T22:30:06.499Z,100664.22
2022-08-21T22:32:40.258Z,100653.44
2022-08-21T22:35:18.527Z,100651.47
2022-08-21T22:37:50.591Z,100653.06
2022-08-21T22:40:30.319Z,100651.03
2022-08-21T22:47:24.537Z,100639.00
2022-08-21T22:50:54.213Z,100646.13
2022-08-21T22:53:28.726Z,100652.50
2022-08-21T22:56:10.501Z,100653.28
2022-08-21T22:58:53.208Z,100653.28
2022-08-21T23:01:20.998Z,100654.09
2022-08-21T23:07:43.076Z,100642.81
2022-08-21T23:10:33.875Z,100646.03
2022-08-21T23:13:11.076Z,100650.38
2022-08-21T23:19:50.173Z,100633.63
2022-08-21T23:22:36.009Z,100638.91
2022-08-21T23:25:22.534Z,100626.06
2022-08-21T23:28:01.381Z,100623.66
2022-08-21T23:31:26.562Z,100624.88
2022-08-21T23:34:22.663Z,100617.28
2022-08-21T23:37:58.716Z,100609.28
2022-08-21T23:40:52.654Z,100610.06
2022-08-21T23:47:53.802Z,100608.50
2022-08-21T23:51:02.888Z,100608.09
2022-08-21T23:57:51.041Z,100608.53
